Time;durP1;ratioP1;P1;durP2;ratioP2;P2;SDS_P1;SDS_P2;PMS_P1;PMS_P2;Temp;Humidity;BMP_temperature;BMP_pressure;BME280_temperature;BME280_humidity;BME280_pressure;Samples;Min_cycle;Max_cycle;Signal;HPM_P1;HPM_P2
2023/11/06 00:02:53;;;;;;;8.53;1.00;;;;;9.60;98991.00;;;;10311385;28;20690;-74
2023/11/06 00:07:54;;;;;;;7.67;1.90;;;;;9.60;98994.00;;;;10312425;28;20223;-74
2023/11/06 00:12:56;;;;;;;5.40;1.07;;;;;9.60;98997.00;;;;10314231;28;20275;-74
2023/11/06 00:17:57;;;;;;;7.80;1.73;;;;;9.60;99004.00;;;;10328386;28;20227;-73
2023/11/06 00:22:58;;;;;;;6.93;1.40;;;;;9.40;99011.00;;;;10312176;28;20220;-73
2023/11/06 00:27:59;;;;;;;3.90;1.20;;;;;9.30;99006.00;;;;10312212;28;20223;-74
2023/11/06 00:33:01;;;;;;;4.70;1.57;;;;;9.20;98999.00;;;;10313290;28;20708;-73
2023/11/06 00:38:02;;;;;;;3.90;1.27;;;;;9.20;99013.00;;;;10314160;28;20236;-73
2023/11/06 00:43:03;;;;;;;3.60;1.37;;;;;9.10;99010.00;;;;10317383;28;20224;-73
2023/11/06 00:48:06;;;;;;;4.90;1.03;;;;;9.10;99010.00;;;;10333637;28;20226;-72
2023/11/06 00:53:08;;;;;;;3.03;1.10;;;;;9.10;99026.00;;;;10306216;28;20235;-72
2023/11/06 00:58:10;;;;;;;5.40;1.30;;;;;9.00;99033.00;;;;10306641;28;20232;-72
2023/11/06 01:03:11;;;;;;;2.77;0.90;;;;;9.00;99031.00;;;;10308090;28;20220;-72
2023/11/06 01:08:12;;;;;;;2.60;0.77;;;;;8.90;99030.00;;;;10274421;28;20220;-72
2023/11/06 01:13:13;;;;;;;3.10;1.37;;;;;8.90;99041.00;;;;10305469;28;20867;-72
2023/11/06 01:18:15;;;;;;;2.00;1.00;;;;;8.90;99067.00;;;;10301617;28;20279;-73
2023/11/06 01:23:17;;;;;;;1.77;1.07;;;;;8.80;99073.00;;;;10298839;28;20252;-73
2023/11/06 01:28:18;;;;;;;5.13;1.10;;;;;8.90;99100.00;;;;10326865;28;20220;-72
2023/11/06 01:33:19;;;;;;;10.23;1.83;;;;;8.90;99105.00;;;;10331555;28;20275;-72
2023/11/06 01:38:20;;;;;;;4.93;1.57;;;;;9.00;99120.00;;;;10315383;28;20216;-72
2023/11/06 01:43:25;;;;;;;8.23;1.50;;;;;9.10;99129.00;;;;10303477;28;20231;-72
2023/11/06 01:48:29;;;;;;;5.30;1.47;;;;;9.10;99136.00;;;;10309097;28;20220;-72
2023/11/06 01:53:30;;;;;;;9.17;1.50;;;;;9.10;99129.00;;;;10309814;28;20228;-72
2023/11/06 01:58:32;;;;;;;6.67;1.40;;;;;9.10;99139.00;;;;10308161;28;20625;-72
2023/11/06 02:03:34;;;;;;;7.67;1.97;;;;;9.10;99148.00;;;;10306747;28;20286;-73
2023/11/06 02:08:35;;;;;;;5.23;1.37;;;;;9.00;99152.00;;;;10320567;28;20737;-72
2023/11/06 02:13:37;;;;;;;4.90;1.10;;;;;8.90;99146.00;;;;10314257;28;20694;-72
2023/11/06 02:18:38;;;;;;;4.23;1.33;;;;;8.90;99148.00;;;;10295624;28;20973;-71
2023/11/06 02:23:40;;;;;;;4.93;1.40;;;;;8.80;99151.00;;;;10310418;28;20785;-71
2023/11/06 02:28:41;;;;;;;9.97;1.53;;;;;8.80;99168.00;;;;10310343;28;20219;-71
2023/11/06 02:33:43;;;;;;;5.37;1.30;;;;;8.80;99177.00;;;;10340385;28;20234;-71
2023/11/06 02:38:44;;;;;;;8.57;1.90;;;;;8.80;99190.00;;;;10297451;28;20231;-70
2023/11/06 02:43:45;;;;;;;8.00;1.57;;;;;8.80;99190.00;;;;10294328;28;20255;-71
2023/11/06 02:48:46;;;;;;;7.67;1.50;;;;;8.80;99192.00;;;;10329057;28;20255;-71
2023/11/06 02:53:47;;;;;;;5.57;1.33;;;;;8.70;99196.00;;;;10315211;28;20227;-71
2023/11/06 02:58:48;;;;;;;6.47;1.50;;;;;8.70;99208.00;;;;10305271;28;20374;-71
2023/11/06 03:03:50;;;;;;;6.03;1.60;;;;;8.70;99218.00;;;;10311043;28;20221;-71
2023/11/06 03:08:51;;;;;;;7.73;1.87;;;;;8.70;99216.00;;;;10320600;28;20733;-71
2023/11/06 03:13:52;;;;;;;5.57;1.23;;;;;8.60;99221.00;;;;10293914;28;20234;-72
2023/11/06 03:18:54;;;;;;;5.83;1.33;;;;;8.50;99231.00;;;;10315541;28;20307;-72
2023/11/06 03:23:55;;;;;;;5.30;1.47;;;;;8.60;99241.00;;;;10312336;28;20298;-72
2023/11/06 03:28:56;;;;;;;6.17;1.90;;;;;8.70;99229.00;;;;10300065;28;20749;-73
2023/11/06 03:33:57;;;;;;;9.17;2.00;;;;;8.80;99240.00;;;;10299736;28;20235;-72
2023/11/06 03:38:59;;;;;;;12.00;2.73;;;;;8.80;99236.00;;;;10329756;28;20227;-72
2023/11/06 03:44:00;;;;;;;9.87;1.80;;;;;8.80;99240.00;;;;10313930;28;20223;-73
2023/11/06 03:49:03;;;;;;;14.37;2.33;;;;;8.70;99231.00;;;;10311301;28;20242;-73
2023/11/06 03:54:04;;;;;;;16.40;2.60;;;;;8.70;99236.00;;;;10297787;28;20243;-72
2023/11/06 03:59:05;;;;;;;14.37;2.40;;;;;8.70;99235.00;;;;10323529;28;20326;-72
2023/11/06 04:04:07;;;;;;;16.07;2.73;;;;;8.70;99234.00;;;;10308846;28;20219;-73
2023/11/06 04:09:08;;;;;;;14.37;3.43;;;;;8.70;99240.00;;;;10316725;28;20220;-73
2023/11/06 04:14:09;;;;;;;11.10;2.47;;;;;8.70;99252.00;;;;10293599;28;20223;-73
2023/11/06 04:19:11;;;;;;;11.47;2.27;;;;;8.60;99256.00;;;;10309264;28;20679;-72
2023/11/06 04:24:12;;;;;;;14.10;2.97;;;;;8.60;99267.00;;;;10304795;28;20240;-70
2023/11/06 04:29:13;;;;;;;14.13;2.63;;;;;8.50;99270.00;;;;10304226;28;20309;-70
2023/11/06 04:34:14;;;;;;;11.20;2.97;;;;;8.50;99288.00;;;;10309683;28;20663;-70
2023/11/06 04:39:16;;;;;;;16.40;2.37;;;;;8.60;99287.00;;;;10272148;28;20223;-69
2023/11/06 04:44:18;;;;;;;11.53;2.47;;;;;8.70;99283.00;;;;10309649;28;20220;-70
2023/11/06 04:49:19;;;;;;;18.00;2.97;;;;;8.70;99279.00;;;;10298134;28;20235;-70
2023/11/06 04:54:20;;;;;;;14.63;2.20;;;;;8.60;99289.00;;;;10313177;28;20255;-70
2023/11/06 04:59:22;;;;;;;14.53;2.77;;;;;8.60;99310.00;;;;10286124;28;20227;-71
2023/11/06 05:04:23;;;;;;;11.93;2.53;;;;;8.50;99324.00;;;;10303889;28;20271;-70
2023/11/06 05:09:24;;;;;;;15.43;2.57;;;;;8.40;99317.00;;;;10303232;28;20231;-70
2023/11/06 05:14:25;;;;;;;16.67;2.73;;;;;8.30;99323.00;;;;10312720;28;20243;-70
2023/11/06 05:19:26;;;;;;;11.50;2.40;;;;;8.40;99321.00;;;;10299397;28;20677;-70
2023/11/06 05:24:29;;;;;;;16.70;2.93;;;;;8.40;99326.00;;;;10314498;28;20242;-70
2023/11/06 05:29:33;;;;;;;16.47;2.97;;;;;8.40;99334.00;;;;10298254;28;20219;-70
2023/11/06 05:34:34;;;;;;;15.30;2.90;;;;;8.30;99347.00;;;;10306120;28;20220;-70
2023/11/06 05:39:39;;;;;;;10.87;2.33;;;;;8.30;99348.00;;;;10299038;28;20274;-70
2023/11/06 05:44:43;;;;;;;13.27;3.43;;;;;8.20;99353.00;;;;10308015;28;20235;-70
2023/11/06 05:49:44;;;;;;;14.13;2.93;;;;;8.20;99364.00;;;;10298925;28;20215;-72
2023/11/06 05:54:45;;;;;;;15.10;2.87;;;;;8.20;99352.00;;;;10321904;28;20227;-70
2023/11/06 05:59:46;;;;;;;12.13;2.37;;;;;8.40;99358.00;;;;10296658;28;20834;-71
2023/11/06 06:04:47;;;;;;;15.17;2.07;;;;;8.60;99360.00;;;;10291149;28;20895;-69
2023/11/06 06:09:48;;;;;;;13.83;2.80;;;;;8.70;99375.00;;;;10316781;28;20248;-71
2023/11/06 06:14:55;;;;;;;17.23;2.63;;;;;8.70;99383.00;;;;10317791;28;20254;-70
2023/11/06 06:19:56;;;;;;;12.37;2.53;;;;;8.60;99386.00;;;;10317715;28;20231;-71
2023/11/06 06:24:58;;;;;;;9.17;2.50;;;;;8.50;99391.00;;;;10313707;28;20251;-71
2023/11/06 06:29:59;;;;;;;12.63;2.63;;;;;8.50;99391.00;;;;10313067;28;20826;-71
2023/11/06 06:35:04;;;;;;;10.20;2.00;;;;;8.40;99397.00;;;;10314524;28;20309;-71
2023/11/06 06:40:08;;;;;;;9.57;2.27;;;;;8.50;99408.00;;;;10312297;28;20883;-70
2023/11/06 06:45:09;;;;;;;11.07;1.77;;;;;8.70;99419.00;;;;10315617;28;20235;-73
2023/11/06 06:50:11;;;;;;;9.70;2.40;;;;;8.70;99412.00;;;;10328081;28;20250;-72
2023/11/06 06:55:12;;;;;;;13.80;3.30;;;;;8.80;99424.00;;;;10312038;28;20223;-72
2023/11/06 07:00:14;;;;;;;15.13;3.97;;;;;8.70;99411.00;;;;10318822;28;20264;-72
2023/11/06 07:05:16;;;;;;;15.87;3.77;;;;;8.50;99426.00;;;;10320700;28;20254;-71
2023/11/06 07:10:17;;;;;;;19.27;2.97;;;;;8.30;99436.00;;;;10324836;28;20229;-72
2023/11/06 07:15:19;;;;;;;12.27;3.20;;;;;8.20;99442.00;;;;10325988;28;20231;-72
2023/11/06 07:20:20;;;;;;;15.27;3.30;;;;;8.10;99440.00;;;;10314730;28;20220;-72
2023/11/06 07:25:21;;;;;;;9.27;2.93;;;;;8.10;99441.00;;;;10306007;28;20231;-72
2023/11/06 07:30:25;;;;;;;16.23;3.17;;;;;8.10;99442.00;;;;10314531;28;20715;-72
2023/11/06 07:35:26;;;;;;;11.97;2.43;;;;;8.20;99450.00;;;;10321262;28;20321;-73
2023/11/06 07:40:27;;;;;;;13.67;2.73;;;;;8.30;99450.00;;;;10308166;28;20282;-73
2023/11/06 07:45:28;;;;;;;16.70;2.87;;;;;8.30;99443.00;;;;10311637;28;20378;-72
2023/11/06 07:50:30;;;;;;;23.07;3.50;;;;;8.40;99446.00;;;;10314449;28;20271;-72
2023/11/06 07:55:32;;;;;;;12.73;3.37;;;;;8.60;99459.00;;;;10318957;28;20228;-72
2023/11/06 08:00:35;;;;;;;19.13;3.33;;;;;8.80;99457.00;;;;10316411;28;20230;-71
2023/11/06 08:05:47;;;;;;;10.43;2.77;;;;;9.00;99454.00;;;;10307611;28;20227;-72
2023/11/06 08:10:48;;;;;;;12.00;3.03;;;;;9.20;99461.00;;;;10316972;28;20231;-72
2023/11/06 08:15:49;;;;;;;23.33;3.50;;;;;9.50;99459.00;;;;10310532;28;20220;-72
2023/11/06 08:20:50;;;;;;;13.33;3.97;;;;;9.70;99466.00;;;;10309012;28;20311;-72
2023/11/06 08:25:52;;;;;;;20.90;4.43;;;;;10.00;99464.00;;;;10313398;28;20270;-72
2023/11/06 08:30:53;;;;;;;10.47;3.03;;;;;10.40;99467.00;;;;10293917;28;20228;-72
2023/11/06 08:35:54;;;;;;;11.77;2.50;;;;;10.80;99460.00;;;;10328344;28;20231;-73
2023/11/06 08:40:56;;;;;;;15.10;3.47;;;;;11.00;99468.00;;;;10310556;28;20363;-72
2023/11/06 08:46:00;;;;;;;15.80;2.90;;;;;11.30;99476.00;;;;10293988;28;20234;-72
2023/11/06 08:51:01;;;;;;;15.52;3.08;;;;;11.50;99479.00;;;;10291449;28;20224;-72
2023/11/06 08:56:03;;;;;;;14.25;3.05;;;;;11.90;99492.00;;;;10286808;28;20223;-72
2023/11/06 09:01:06;;;;;;;13.90;3.17;;;;;12.10;99486.00;;;;10317924;28;20235;-72
2023/11/06 09:06:10;;;;;;;13.85;2.88;;;;;12.00;99495.00;;;;10320242;28;20220;-75
2023/11/06 09:11:11;;;;;;;12.05;3.08;;;;;12.10;99501.00;;;;10315635;28;20962;-76
2023/11/06 09:16:12;;;;;;;13.75;2.67;;;;;12.50;99508.00;;;;10318227;28;20235;-76
2023/11/06 09:21:13;;;;;;;15.23;2.83;;;;;12.30;99513.00;;;;10323455;28;20226;-76
2023/11/06 09:26:14;;;;;;;17.75;3.78;;;;;12.40;99515.00;;;;10318148;28;20581;-75
2023/11/06 09:31:22;;;;;;;12.52;3.15;;;;;12.40;99519.00;;;;10317601;28;20219;-77
2023/11/06 09:36:23;;;;;;;8.52;3.00;;;;;12.50;99513.00;;;;10321753;28;20236;-76
2023/11/06 09:41:25;;;;;;;15.93;2.80;;;;;12.60;99510.00;;;;10317691;28;20233;-77
2023/11/06 09:46:28;;;;;;;13.43;3.03;;;;;12.60;99529.00;;;;10301645;28;20781;-76
2023/11/06 09:51:33;;;;;;;18.23;3.60;;;;;12.60;99533.00;;;;10318502;28;20318;-76
2023/11/06 09:56:34;;;;;;;13.30;3.30;;;;;12.80;99529.00;;;;10313754;28;20236;-77
2023/11/06 10:01:36;;;;;;;10.50;2.67;;;;;12.60;99537.00;;;;10329734;28;20231;-77
2023/11/06 10:06:37;;;;;;;8.98;2.80;;;;;12.90;99544.00;;;;10320965;28;20278;-78
2023/11/06 10:11:38;;;;;;;11.52;2.97;;;;;12.80;99555.00;;;;10322519;28;20244;-77
2023/11/06 10:16:39;;;;;;;8.85;2.42;;;;;12.70;99557.00;;;;10327461;28;20235;-72
2023/11/06 10:21:41;;;;;;;13.00;2.75;;;;;13.00;99573.00;;;;10299526;28;20239;-73
2023/11/06 10:26:43;;;;;;;13.52;3.65;;;;;13.60;99576.00;;;;10316252;28;20255;-72
2023/11/06 10:31:48;;;;;;;7.97;2.55;;;;;13.90;99588.00;;;;10315073;28;20835;-72
2023/11/06 10:37:09;;;;;;;12.10;3.13;;;;;13.60;99594.00;;;;10324809;28;20223;-72
2023/11/06 10:42:10;;;;;;;10.00;2.42;;;;;14.00;99583.00;;;;10310307;28;20338;-72
2023/11/06 10:47:15;;;;;;;8.15;2.80;;;;;14.50;99594.00;;;;10313655;28;20220;-73
2023/11/06 10:52:18;;;;;;;8.30;1.90;;;;;14.90;99596.00;;;;10290577;28;20319;-73
2023/11/06 10:57:19;;;;;;;9.63;2.35;;;;;14.60;99588.00;;;;10310202;28;20251;-73
2023/11/06 11:02:39;;;;;;;11.38;2.10;;;;;14.50;99577.00;;;;10310421;28;20255;-72
2023/11/06 11:07:42;;;;;;;8.98;1.90;;;;;14.20;99570.00;;;;10311356;28;20302;-72
2023/11/06 11:12:49;;;;;;;7.97;2.10;;;;;13.90;99568.00;;;;10312461;28;20928;-72
2023/11/06 11:17:58;;;;;;;8.52;1.80;;;;;14.00;99565.00;;;;10303545;28;20674;-72
2023/11/06 11:23:07;;;;;;;12.10;2.03;;;;;14.50;99571.00;;;;10315295;28;20227;-72
2023/11/06 11:28:13;;;;;;;9.07;2.00;;;;;14.10;99586.00;;;;10305446;28;20221;-72
2023/11/06 11:33:53;;;;;;;9.63;2.20;;;;;14.50;99574.00;;;;10307591;28;20232;-72
2023/11/06 11:38:55;;;;;;;10.02;2.03;;;;;14.70;99577.00;;;;10310148;28;20651;-72
2023/11/06 11:44:04;;;;;;;4.72;1.50;;;;;14.00;99587.00;;;;10306879;28;20271;-72
2023/11/06 11:49:05;;;;;;;10.43;2.20;;;;;13.80;99580.00;;;;10306915;28;20231;-73
2023/11/06 11:54:07;;;;;;;7.95;1.77;;;;;13.30;99578.00;;;;10301347;28;20235;-72
2023/11/06 11:59:08;;;;;;;8.75;1.58;;;;;13.30;99589.00;;;;10308394;28;20306;-72
2023/11/06 12:04:23;;;;;;;7.22;1.42;;;;;13.70;99583.00;;;;10308763;28;20228;-73
2023/11/06 12:09:25;;;;;;;11.13;2.58;;;;;14.00;99583.00;;;;10314736;28;20633;-73
2023/11/06 12:14:30;;;;;;;8.90;1.83;;;;;14.10;99591.00;;;;10303766;28;20241;-72
2023/11/06 12:19:39;;;;;;;6.43;1.60;;;;;13.50;99600.00;;;;10308620;28;20705;-72
2023/11/06 12:25:06;;;;;;;7.63;1.70;;;;;13.10;99607.00;;;;10313423;28;20270;-72
2023/11/06 12:30:11;;;;;;;9.65;2.00;;;;;12.80;99611.00;;;;10304527;28;20231;-72
2023/11/06 12:35:19;;;;;;;14.98;2.63;;;;;12.60;99617.00;;;;10324892;28;20270;-70
2023/11/06 12:40:27;;;;;;;10.32;2.10;;;;;11.90;99614.00;;;;10316294;28;20238;-71
2023/11/06 12:45:34;;;;;;;7.72;1.67;;;;;11.80;99629.00;;;;10314502;28;20228;-71
2023/11/06 12:50:36;;;;;;;5.35;1.90;;;;;11.90;99611.00;;;;10315207;28;20890;-71
2023/11/06 12:55:38;;;;;;;7.47;1.40;;;;;11.90;99620.00;;;;10304921;28;20235;-71
2023/11/06 13:00:42;;;;;;;6.00;1.40;;;;;11.90;99628.00;;;;10312167;28;20234;-72
2023/11/06 13:05:43;;;;;;;5.90;1.67;;;;;12.20;99632.00;;;;10311562;28;20246;-71
2023/11/06 13:10:46;;;;;;;6.75;1.42;;;;;12.10;99637.00;;;;10320332;28;20237;-71
2023/11/06 13:15:47;;;;;;;5.88;1.30;;;;;11.90;99650.00;;;;10317885;28;20263;-72
2023/11/06 13:20:53;;;;;;;7.75;1.45;;;;;11.70;99647.00;;;;10312407;28;20223;-71
2023/11/06 13:25:55;;;;;;;3.75;1.30;;;;;11.50;99650.00;;;;10315814;28;20563;-71
2023/11/06 13:30:58;;;;;;;5.88;1.35;;;;;11.40;99648.00;;;;10317679;28;20311;-71
2023/11/06 13:36:00;;;;;;;5.55;1.38;;;;;11.70;99659.00;;;;10317806;28;20231;-72
2023/11/06 13:41:05;;;;;;;6.63;1.55;;;;;12.10;99653.00;;;;10314362;28;20224;-72
2023/11/06 13:46:06;;;;;;;8.05;1.90;;;;;12.00;99658.00;;;;10320647;28;20223;-72
2023/11/06 13:51:13;;;;;;;5.88;1.83;;;;;12.00;99667.00;;;;10320461;28;21154;-72
2023/11/06 13:56:25;;;;;;;6.70;1.73;;;;;12.30;99656.00;;;;10319612;28;20311;-73
2023/11/06 14:01:44;;;;;;;6.75;1.83;;;;;12.40;99687.00;;;;10314600;28;20581;-73
2023/11/06 14:06:49;;;;;;;4.78;1.50;;;;;11.90;99676.00;;;;10320380;28;20219;-73
2023/11/06 14:11:50;;;;;;;11.25;2.25;;;;;11.80;99674.00;;;;10317126;28;20224;-73
2023/11/06 14:16:55;;;;;;;10.07;2.05;;;;;11.90;99673.00;;;;10295664;28;20228;-73
2023/11/06 14:21:56;;;;;;;6.50;2.00;;;;;12.10;99680.00;;;;10299945;28;20306;-73
2023/11/06 14:26:59;;;;;;;12.23;1.83;;;;;12.50;99661.00;;;;10317907;28;20228;-73
2023/11/06 14:32:02;;;;;;;8.63;2.72;;;;;13.40;99686.00;;;;10314078;28;20212;-73
2023/11/06 14:37:04;;;;;;;9.35;2.90;;;;;12.70;99711.00;;;;10318171;28;20281;-73
2023/11/06 14:42:06;;;;;;;5.05;1.98;;;;;12.10;99710.00;;;;10333857;28;20326;-73
2023/11/06 14:47:07;;;;;;;5.68;1.58;;;;;11.60;99691.00;;;;10316730;28;20314;-72
2023/11/06 14:52:08;;;;;;;12.63;2.10;;;;;11.30;99695.00;;;;10313873;28;20318;-73
2023/11/06 14:57:10;;;;;;;9.32;1.50;;;;;11.20;99698.00;;;;10308843;28;20296;-72
2023/11/06 15:02:11;;;;;;;5.90;1.58;;;;;11.10;99698.00;;;;10311332;28;20319;-72
2023/11/06 15:07:13;;;;;;;6.60;1.43;;;;;11.10;99696.00;;;;10312389;28;20223;-71
2023/11/06 15:12:14;;;;;;;5.17;1.40;;;;;11.10;99711.00;;;;10312998;28;20227;-72
2023/11/06 15:17:15;;;;;;;9.07;2.30;;;;;11.20;99722.00;;;;10327372;28;20270;-72
2023/11/06 15:22:16;;;;;;;8.18;1.70;;;;;11.20;99730.00;;;;10309795;28;20255;-72
2023/11/06 15:27:17;;;;;;;7.77;1.60;;;;;11.00;99731.00;;;;10302821;28;20254;-72
2023/11/06 15:32:18;;;;;;;7.43;2.00;;;;;10.90;99741.00;;;;10307898;28;20256;-72
2023/11/06 15:37:19;;;;;;;5.20;2.23;;;;;10.80;99751.00;;;;10305598;28;20298;-72
2023/11/06 15:42:21;;;;;;;7.30;2.07;;;;;10.60;99753.00;;;;10325495;28;20224;-72
2023/11/06 15:47:22;;;;;;;5.07;1.57;;;;;10.40;99757.00;;;;10307269;28;20291;-72
2023/11/06 15:52:24;;;;;;;3.50;1.47;;;;;10.30;99755.00;;;;10313162;28;20219;-72
2023/11/06 15:57:29;;;;;;;3.83;1.10;;;;;10.10;99774.00;;;;10308035;28;20216;-72
2023/11/06 16:02:30;;;;;;;4.47;1.27;;;;;10.00;99782.00;;;;10309402;28;20796;-71
2023/11/06 16:07:32;;;;;;;4.83;0.97;;;;;9.80;99780.00;;;;10311913;28;20246;-72
2023/11/06 16:12:33;;;;;;;3.60;1.20;;;;;9.70;99787.00;;;;10311081;28;20262;-71
2023/11/06 16:17:34;;;;;;;3.37;0.97;;;;;9.60;99796.00;;;;10306394;28;20236;-71
2023/11/06 16:22:35;;;;;;;3.63;1.20;;;;;9.40;99802.00;;;;10308000;28;20820;-71
2023/11/06 16:27:37;;;;;;;3.40;1.10;;;;;9.40;99820.00;;;;10329070;28;20230;-71
2023/11/06 16:32:38;;;;;;;2.60;1.13;;;;;9.30;99822.00;;;;10299557;28;20231;-71
2023/11/06 16:37:40;;;;;;;5.13;2.07;;;;;9.20;99840.00;;;;10313328;28;20224;-71
2023/11/06 16:42:42;;;;;;;4.93;2.73;;;;;9.00;99843.00;;;;10301701;28;20996;-70
2023/11/06 16:47:44;;;;;;;4.83;1.47;;;;;9.00;99844.00;;;;10325922;28;20231;-71
2023/11/06 16:52:45;;;;;;;8.00;1.60;;;;;9.00;99856.00;;;;10309295;28;20246;-70
2023/11/06 16:57:47;;;;;;;5.63;1.47;;;;;9.00;99861.00;;;;10311032;28;20741;-70
2023/11/06 17:02:48;;;;;;;2.97;1.63;;;;;9.00;99863.00;;;;10309649;28;20220;-71
2023/11/06 17:07:51;;;;;;;6.63;1.70;;;;;9.00;99875.00;;;;10320638;28;20231;-71
2023/11/06 17:12:54;;;;;;;5.43;1.80;;;;;8.80;99883.00;;;;10313273;28;20232;-71
2023/11/06 17:17:55;;;;;;;3.60;1.77;;;;;8.70;99881.00;;;;10307221;28;20732;-71
2023/11/06 17:22:56;;;;;;;7.70;2.07;;;;;8.60;99887.00;;;;10317363;28;20223;-74
2023/11/06 17:27:57;;;;;;;4.50;2.50;;;;;8.50;99883.00;;;;10323393;28;20311;-73
2023/11/06 17:32:58;;;;;;;11.50;3.27;;;;;8.40;99882.00;;;;10318485;28;20258;-74
2023/11/06 17:37:59;;;;;;;11.60;4.37;;;;;8.40;99891.00;;;;10304387;28;20235;-73
2023/11/06 17:43:01;;;;;;;12.87;4.90;;;;;8.30;99893.00;;;;10315893;28;20266;-74
2023/11/06 17:48:03;;;;;;;12.73;6.00;;;;;8.20;99894.00;;;;10316470;28;20248;-74
2023/11/06 17:53:05;;;;;;;18.27;6.53;;;;;8.20;99903.00;;;;10331209;28;20223;-73
2023/11/06 17:58:08;;;;;;;17.53;8.00;;;;;8.20;99908.00;;;;10312641;28;20771;-73
2023/11/06 18:03:09;;;;;;;18.47;7.73;;;;;8.20;99916.00;;;;10331004;28;20216;-74
2023/11/06 18:08:13;;;;;;;15.03;8.20;;;;;8.20;99924.00;;;;10307157;28;20234;-73
2023/11/06 18:13:14;;;;;;;14.40;6.37;;;;;8.30;99930.00;;;;10314297;28;20223;-73
2023/11/06 18:18:15;;;;;;;14.07;6.67;;;;;8.50;99936.00;;;;10299918;28;20226;-73
2023/11/06 18:23:16;;;;;;;13.63;6.37;;;;;8.50;99934.00;;;;10315935;28;20216;-73
2023/11/06 18:28:19;;;;;;;16.90;6.63;;;;;8.60;99943.00;;;;10312996;28;20234;-74
2023/11/06 18:33:22;;;;;;;15.70;5.43;;;;;8.60;99946.00;;;;10322035;28;20231;-71
2023/11/06 18:38:24;;;;;;;15.20;5.07;;;;;8.50;99950.00;;;;10301604;28;20231;-71
2023/11/06 18:43:25;;;;;;;12.67;5.33;;;;;8.50;99950.00;;;;10315047;28;20599;-71
2023/11/06 18:48:28;;;;;;;14.37;5.00;;;;;8.50;99955.00;;;;10323356;28;20253;-70
2023/11/06 18:53:31;;;;;;;12.13;5.50;;;;;8.50;99955.00;;;;10322293;28;20219;-70
2023/11/06 18:58:32;;;;;;;13.67;5.23;;;;;8.50;99957.00;;;;10317893;28;20228;-70
2023/11/06 19:03:33;;;;;;;15.27;4.87;;;;;8.50;99963.00;;;;10319735;28;20227;-71
2023/11/06 19:08:35;;;;;;;14.43;5.07;;;;;8.60;99964.00;;;;10307784;28;20227;-70
2023/11/06 19:13:36;;;;;;;12.17;4.67;;;;;8.70;99966.00;;;;10327169;28;20235;-70
2023/11/06 19:18:39;;;;;;;12.47;4.30;;;;;8.70;99972.00;;;;10321004;28;20228;-70
2023/11/06 19:23:40;;;;;;;12.30;5.00;;;;;8.70;99981.00;;;;10310140;28;20322;-70
2023/11/06 19:28:41;;;;;;;10.00;4.13;;;;;8.70;99968.00;;;;10316548;28;20227;-70
2023/11/06 19:33:43;;;;;;;15.17;5.20;;;;;8.80;99976.00;;;;10322815;28;20231;-70
2023/11/06 19:38:45;;;;;;;12.03;5.00;;;;;8.90;99977.00;;;;10317426;28;20235;-70
2023/11/06 19:43:46;;;;;;;15.43;5.17;;;;;8.90;99984.00;;;;10312958;28;20246;-70
2023/11/06 19:48:47;;;;;;;10.63;4.33;;;;;8.90;99996.00;;;;10313316;28;20722;-70
2023/11/06 19:53:49;;;;;;;10.07;3.67;;;;;8.90;100010.00;;;;10304406;28;20236;-69
2023/11/06 19:58:50;;;;;;;9.77;4.00;;;;;9.00;100007.00;;;;10317948;28;20270;-70
2023/11/06 20:03:51;;;;;;;11.23;3.67;;;;;9.00;100012.00;;;;10315518;28;20310;-70
2023/11/06 20:08:53;;;;;;;14.43;4.10;;;;;9.00;100025.00;;;;10316640;28;20728;-69
2023/11/06 20:13:54;;;;;;;13.30;4.10;;;;;8.90;100023.00;;;;10320431;28;20226;-70
2023/11/06 20:18:55;;;;;;;8.23;3.67;;;;;8.90;100024.00;;;;10322057;28;20277;-70
2023/11/06 20:23:58;;;;;;;12.43;4.20;;;;;8.90;100032.00;;;;10311942;28;20212;-70
2023/11/06 20:28:59;;;;;;;20.17;4.90;;;;;8.90;100025.00;;;;10296514;28;20674;-70
2023/11/06 20:34:01;;;;;;;16.80;5.03;;;;;8.90;100042.00;;;;10313216;28;20727;-70
2023/11/06 20:39:04;;;;;;;13.90;4.87;;;;;8.90;100034.00;;;;10329984;28;20731;-70
2023/11/06 20:44:06;;;;;;;12.37;4.97;;;;;8.90;100046.00;;;;10314714;28;20227;-70
2023/11/06 20:49:07;;;;;;;13.83;5.90;;;;;8.80;100041.00;;;;10318867;28;20590;-70
2023/11/06 20:54:09;;;;;;;13.93;6.27;;;;;8.80;100034.00;;;;10322142;28;20815;-71
2023/11/06 20:59:10;;;;;;;15.90;6.27;;;;;8.70;100040.00;;;;10312718;28;20220;-70
2023/11/06 21:04:11;;;;;;;13.37;6.10;;;;;8.50;100048.00;;;;10309410;28;20915;-70
2023/11/06 21:09:14;;;;;;;13.23;5.70;;;;;8.50;100052.00;;;;10311985;28;20933;-70
2023/11/06 21:14:15;;;;;;;16.27;5.10;;;;;8.60;100055.00;;;;10312731;28;20226;-70
2023/11/06 21:19:19;;;;;;;9.53;4.30;;;;;8.60;100058.00;;;;10314259;28;20204;-70
2023/11/06 21:24:21;;;;;;;7.90;3.87;;;;;8.60;100065.00;;;;10309435;28;20318;-70
2023/11/06 21:29:22;;;;;;;9.03;3.53;;;;;8.60;100068.00;;;;10305733;28;20220;-70
2023/11/06 21:34:23;;;;;;;12.20;3.90;;;;;8.70;100070.00;;;;10318686;28;20594;-70
2023/11/06 21:39:24;;;;;;;11.60;3.87;;;;;8.60;100067.00;;;;10313448;28;20230;-70
2023/11/06 21:44:25;;;;;;;9.43;3.73;;;;;8.60;100063.00;;;;10309731;28;20584;-70
2023/11/06 21:49:26;;;;;;;11.00;4.33;;;;;8.60;100065.00;;;;10312538;28;20220;-70
2023/11/06 21:54:27;;;;;;;12.27;4.07;;;;;8.60;100064.00;;;;10302385;28;20253;-71
2023/11/06 21:59:28;;;;;;;8.07;3.70;;;;;8.60;100064.00;;;;10304140;28;20323;-70
2023/11/06 22:04:30;;;;;;;8.80;3.80;;;;;8.60;100068.00;;;;10315861;28;20303;-70
2023/11/06 22:09:31;;;;;;;12.97;4.03;;;;;8.50;100076.00;;;;10300230;28;20245;-70
2023/11/06 22:14:32;;;;;;;9.90;3.50;;;;;8.50;100078.00;;;;10316126;28;20235;-70
2023/11/06 22:19:34;;;;;;;13.83;3.70;;;;;8.40;100089.00;;;;10307192;28;20235;-71
2023/11/06 22:24:35;;;;;;;8.07;3.20;;;;;8.40;100093.00;;;;10302017;28;20219;-71
2023/11/06 22:29:36;;;;;;;12.47;3.67;;;;;8.40;100101.00;;;;10290144;28;20574;-71
2023/11/06 22:34:37;;;;;;;16.07;3.93;;;;;8.40;100104.00;;;;10309430;28;20228;-71
2023/11/06 22:39:39;;;;;;;12.17;3.83;;;;;8.50;100106.00;;;;10303134;28;20239;-71
2023/11/06 22:44:40;;;;;;;6.53;3.50;;;;;8.50;100115.00;;;;10317745;28;20235;-70
2023/11/06 22:49:42;;;;;;;8.87;2.80;;;;;8.40;100109.00;;;;10301509;28;20231;-71
2023/11/06 22:54:43;;;;;;;10.90;3.30;;;;;8.40;100111.00;;;;10300549;28;20232;-70
2023/11/06 22:59:44;;;;;;;7.17;2.80;;;;;8.40;100121.00;;;;10310051;28;20228;-70
2023/11/06 23:04:45;;;;;;;6.43;3.27;;;;;8.40;100102.00;;;;10311949;28;20227;-70
2023/11/06 23:09:47;;;;;;;13.00;2.80;;;;;8.40;100111.00;;;;10303397;28;20727;-70
2023/11/06 23:14:49;;;;;;;7.20;3.27;;;;;8.40;100123.00;;;;10280696;28;20228;-74
2023/11/06 23:19:50;;;;;;;11.13;3.57;;;;;8.50;100112.00;;;;10308676;28;20231;-74
2023/11/06 23:24:51;;;;;;;9.53;3.00;;;;;8.50;100079.00;;;;10315140;28;20259;-74
2023/11/06 23:29:52;;;;;;;12.13;3.90;;;;;8.50;100089.00;;;;10296037;28;20306;-75
2023/11/06 23:34:53;;;;;;;11.13;2.87;;;;;8.40;100094.00;;;;10300114;28;20921;-74
2023/11/06 23:39:56;;;;;;;11.33;3.27;;;;;8.40;100113.00;;;;10312318;28;20227;-74
2023/11/06 23:44:57;;;;;;;11.10;3.63;;;;;8.40;100138.00;;;;10309480;28;20220;-75
2023/11/06 23:49:58;;;;;;;10.07;3.57;;;;;8.40;100150.00;;;;10313865;28;20353;-74
2023/11/06 23:55:02;;;;;;;11.23;3.80;;;;;8.40;100158.00;;;;10308424;28;20231;-73
